sensor_id;sensor_type;location;lat;lon;timestamp;P1;durP1;ratioP1;P2;durP2;ratioP2
12202;SDS011;6164;42.178;24.622;2023-05-15T00:01:55;14.32;;;12.85;;
12202;SDS011;6164;42.178;24.622;2023-05-15T00:04:21;14.50;;;12.95;;
12202;SDS011;6164;42.178;24.622;2023-05-15T00:06:48;14.55;;;13.00;;
12202;SDS011;6164;42.178;24.622;2023-05-15T00:09:15;16.08;;;14.35;;
12202;SDS011;6164;42.178;24.622;2023-05-15T00:11:42;15.35;;;13.82;;
12202;SDS011;6164;42.178;24.622;2023-05-15T00:14:10;16.40;;;14.60;;
12202;SDS011;6164;42.178;24.622;2023-05-15T00:16:37;15.52;;;13.90;;
12202;SDS011;6164;42.178;24.622;2023-05-15T00:19:04;16.67;;;14.98;;
12202;SDS011;6164;42.178;24.622;2023-05-15T00:21:30;19.17;;;15.68;;
12202;SDS011;6164;42.178;24.622;2023-05-15T00:23:57;17.35;;;15.52;;
12202;SDS011;6164;42.178;24.622;2023-05-15T00:26:24;22.58;;;15.48;;
12202;SDS011;6164;42.178;24.622;2023-05-15T00:28:51;20.27;;;15.38;;
12202;SDS011;6164;42.178;24.622;2023-05-15T00:31:19;23.65;;;16.98;;
12202;SDS011;6164;42.178;24.622;2023-05-15T00:33:46;21.92;;;16.55;;
12202;SDS011;6164;42.178;24.622;2023-05-15T00:36:12;19.33;;;16.70;;
12202;SDS011;6164;42.178;24.622;2023-05-15T00:38:39;19.35;;;16.25;;
12202;SDS011;6164;42.178;24.622;2023-05-15T00:41:06;20.25;;;16.40;;
12202;SDS011;6164;42.178;24.622;2023-05-15T00:43:35;19.58;;;16.40;;
12202;SDS011;6164;42.178;24.622;2023-05-15T00:46:04;19.33;;;16.35;;
12202;SDS011;6164;42.178;24.622;2023-05-15T00:48:33;21.83;;;15.40;;
12202;SDS011;6164;42.178;24.622;2023-05-15T00:51:00;20.75;;;16.50;;
12202;SDS011;6164;42.178;24.622;2023-05-15T00:53:27;19.02;;;16.40;;
12202;SDS011;6164;42.178;24.622;2023-05-15T00:55:55;24.63;;;17.60;;
12202;SDS011;6164;42.178;24.622;2023-05-15T00:58:22;17.65;;;15.52;;
12202;SDS011;6164;42.178;24.622;2023-05-15T01:00:50;17.55;;;15.68;;
12202;SDS011;6164;42.178;24.622;2023-05-15T01:03:16;16.73;;;15.02;;
12202;SDS011;6164;42.178;24.622;2023-05-15T01:05:45;17.73;;;15.57;;
12202;SDS011;6164;42.178;24.622;2023-05-15T01:08:12;15.50;;;14.07;;
12202;SDS011;6164;42.178;24.622;2023-05-15T01:10:44;15.60;;;13.90;;
12202;SDS011;6164;42.178;24.622;2023-05-15T01:13:13;16.42;;;14.52;;
12202;SDS011;6164;42.178;24.622;2023-05-15T01:15:40;16.60;;;14.10;;
12202;SDS011;6164;42.178;24.622;2023-05-15T01:18:08;17.08;;;15.30;;
12202;SDS011;6164;42.178;24.622;2023-05-15T01:20:38;17.50;;;14.23;;
12202;SDS011;6164;42.178;24.622;2023-05-15T01:23:29;21.73;;;15.73;;
12202;SDS011;6164;42.178;24.622;2023-05-15T01:29:16;22.08;;;16.80;;
12202;SDS011;6164;42.178;24.622;2023-05-15T01:31:49;19.73;;;16.55;;
12202;SDS011;6164;42.178;24.622;2023-05-15T01:34:21;20.67;;;16.73;;
12202;SDS011;6164;42.178;24.622;2023-05-15T01:36:52;20.15;;;16.88;;
12202;SDS011;6164;42.178;24.622;2023-05-15T01:39:22;19.30;;;15.48;;
12202;SDS011;6164;42.178;24.622;2023-05-15T01:41:53;19.52;;;16.33;;
12202;SDS011;6164;42.178;24.622;2023-05-15T01:44:27;17.38;;;15.50;;
12202;SDS011;6164;42.178;24.622;2023-05-15T01:46:58;18.13;;;15.18;;
12202;SDS011;6164;42.178;24.622;2023-05-15T01:49:28;17.88;;;16.02;;
12202;SDS011;6164;42.178;24.622;2023-05-15T01:51:58;19.17;;;16.35;;
12202;SDS011;6164;42.178;24.622;2023-05-15T01:54:33;21.85;;;15.80;;
12202;SDS011;6164;42.178;24.622;2023-05-15T01:57:02;18.98;;;16.30;;
12202;SDS011;6164;42.178;24.622;2023-05-15T01:59:32;17.48;;;15.50;;
12202;SDS011;6164;42.178;24.622;2023-05-15T02:02:00;17.42;;;15.45;;
12202;SDS011;6164;42.178;24.622;2023-05-15T02:04:28;18.92;;;15.65;;
12202;SDS011;6164;42.178;24.622;2023-05-15T02:06:56;18.33;;;16.35;;
12202;SDS011;6164;42.178;24.622;2023-05-15T02:09:23;21.42;;;16.15;;
12202;SDS011;6164;42.178;24.622;2023-05-15T02:11:51;18.83;;;15.90;;
12202;SDS011;6164;42.178;24.622;2023-05-15T02:14:19;20.80;;;15.77;;
12202;SDS011;6164;42.178;24.622;2023-05-15T02:16:47;17.60;;;15.55;;
12202;SDS011;6164;42.178;24.622;2023-05-15T02:19:15;20.08;;;16.50;;
12202;SDS011;6164;42.178;24.622;2023-05-15T02:21:42;20.95;;;16.67;;
12202;SDS011;6164;42.178;24.622;2023-05-15T02:24:08;21.35;;;16.70;;
12202;SDS011;6164;42.178;24.622;2023-05-15T02:26:35;20.13;;;16.77;;
12202;SDS011;6164;42.178;24.622;2023-05-15T02:29:18;19.27;;;16.85;;
12202;SDS011;6164;42.178;24.622;2023-05-15T02:31:51;20.05;;;16.92;;
12202;SDS011;6164;42.178;24.622;2023-05-15T02:34:25;22.83;;;17.50;;
12202;SDS011;6164;42.178;24.622;2023-05-15T02:37:09;23.17;;;17.50;;
12202;SDS011;6164;42.178;24.622;2023-05-15T02:39:39;19.75;;;17.08;;
12202;SDS011;6164;42.178;24.622;2023-05-15T02:42:10;20.40;;;17.35;;
12202;SDS011;6164;42.178;24.622;2023-05-15T02:44:39;21.77;;;16.92;;
12202;SDS011;6164;42.178;24.622;2023-05-15T02:47:09;19.10;;;17.10;;
12202;SDS011;6164;42.178;24.622;2023-05-15T02:49:37;20.20;;;16.63;;
12202;SDS011;6164;42.178;24.622;2023-05-15T02:52:05;19.15;;;16.25;;
12202;SDS011;6164;42.178;24.622;2023-05-15T02:54:32;20.00;;;17.80;;
12202;SDS011;6164;42.178;24.622;2023-05-15T02:56:58;19.75;;;17.55;;
12202;SDS011;6164;42.178;24.622;2023-05-15T02:59:25;21.95;;;18.13;;
12202;SDS011;6164;42.178;24.622;2023-05-15T03:01:52;24.70;;;18.25;;
12202;SDS011;6164;42.178;24.622;2023-05-15T03:04:20;22.20;;;17.05;;
12202;SDS011;6164;42.178;24.622;2023-05-15T03:06:47;21.83;;;18.13;;
12202;SDS011;6164;42.178;24.622;2023-05-15T03:09:13;21.15;;;17.05;;
12202;SDS011;6164;42.178;24.622;2023-05-15T03:11:40;19.70;;;17.58;;
12202;SDS011;6164;42.178;24.622;2023-05-15T03:14:07;20.42;;;16.80;;
12202;SDS011;6164;42.178;24.622;2023-05-15T03:16:34;19.70;;;17.63;;
12202;SDS011;6164;42.178;24.622;2023-05-15T03:19:02;21.65;;;17.73;;
12202;SDS011;6164;42.178;24.622;2023-05-15T03:21:31;19.00;;;16.98;;
12202;SDS011;6164;42.178;24.622;2023-05-15T03:23:59;19.23;;;16.92;;
12202;SDS011;6164;42.178;24.622;2023-05-15T03:26:25;18.33;;;16.25;;
12202;SDS011;6164;42.178;24.622;2023-05-15T03:28:52;20.75;;;17.23;;
12202;SDS011;6164;42.178;24.622;2023-05-15T03:31:19;26.20;;;19.15;;
12202;SDS011;6164;42.178;24.622;2023-05-15T03:33:45;23.13;;;18.80;;
12202;SDS011;6164;42.178;24.622;2023-05-15T03:36:14;21.52;;;18.10;;
12202;SDS011;6164;42.178;24.622;2023-05-15T03:38:42;20.85;;;17.77;;
12202;SDS011;6164;42.178;24.622;2023-05-15T03:41:09;22.10;;;17.88;;
12202;SDS011;6164;42.178;24.622;2023-05-15T03:43:35;19.85;;;17.10;;
12202;SDS011;6164;42.178;24.622;2023-05-15T03:46:02;22.73;;;16.88;;
12202;SDS011;6164;42.178;24.622;2023-05-15T03:48:29;21.63;;;17.35;;
12202;SDS011;6164;42.178;24.622;2023-05-15T03:50:56;20.88;;;17.88;;
12202;SDS011;6164;42.178;24.622;2023-05-15T03:53:23;23.73;;;17.90;;
12202;SDS011;6164;42.178;24.622;2023-05-15T03:55:51;19.27;;;17.00;;
12202;SDS011;6164;42.178;24.622;2023-05-15T03:58:18;23.15;;;17.83;;
12202;SDS011;6164;42.178;24.622;2023-05-15T04:00:44;21.48;;;18.13;;
12202;SDS011;6164;42.178;24.622;2023-05-15T04:03:11;21.75;;;18.05;;
12202;SDS011;6164;42.178;24.622;2023-05-15T04:05:38;22.60;;;18.23;;
12202;SDS011;6164;42.178;24.622;2023-05-15T04:08:04;20.88;;;18.05;;
12202;SDS011;6164;42.178;24.622;2023-05-15T04:10:33;21.13;;;18.60;;
12202;SDS011;6164;42.178;24.622;2023-05-15T04:13:01;21.48;;;18.20;;
12202;SDS011;6164;42.178;24.622;2023-05-15T04:15:28;22.33;;;18.73;;
12202;SDS011;6164;42.178;24.622;2023-05-15T04:17:55;21.73;;;19.13;;
12202;SDS011;6164;42.178;24.622;2023-05-15T04:20:23;22.50;;;18.77;;
12202;SDS011;6164;42.178;24.622;2023-05-15T04:22:50;21.30;;;17.90;;
12202;SDS011;6164;42.178;24.622;2023-05-15T04:25:17;22.88;;;18.08;;
12202;SDS011;6164;42.178;24.622;2023-05-15T04:27:45;22.77;;;19.30;;
12202;SDS011;6164;42.178;24.622;2023-05-15T04:30:14;20.83;;;18.60;;
12202;SDS011;6164;42.178;24.622;2023-05-15T04:32:41;20.73;;;17.75;;
12202;SDS011;6164;42.178;24.622;2023-05-15T04:35:08;19.63;;;17.23;;
12202;SDS011;6164;42.178;24.622;2023-05-15T04:37:37;25.85;;;18.80;;
12202;SDS011;6164;42.178;24.622;2023-05-15T04:40:05;19.85;;;17.38;;
12202;SDS011;6164;42.178;24.622;2023-05-15T04:42:32;23.23;;;18.30;;
12202;SDS011;6164;42.178;24.622;2023-05-15T04:44:59;23.27;;;18.98;;
12202;SDS011;6164;42.178;24.622;2023-05-15T04:47:27;22.80;;;18.13;;
12202;SDS011;6164;42.178;24.622;2023-05-15T04:49:54;20.52;;;18.08;;
12202;SDS011;6164;42.178;24.622;2023-05-15T04:52:21;20.73;;;18.00;;
12202;SDS011;6164;42.178;24.622;2023-05-15T04:54:47;20.45;;;18.35;;
12202;SDS011;6164;42.178;24.622;2023-05-15T04:57:17;21.95;;;18.27;;
12202;SDS011;6164;42.178;24.622;2023-05-15T04:59:43;22.20;;;17.77;;
12202;SDS011;6164;42.178;24.622;2023-05-15T05:02:10;19.20;;;16.40;;
12202;SDS011;6164;42.178;24.622;2023-05-15T05:04:40;20.08;;;17.90;;
12202;SDS011;6164;42.178;24.622;2023-05-15T05:07:08;22.02;;;19.00;;
12202;SDS011;6164;42.178;24.622;2023-05-15T05:09:34;21.10;;;17.75;;
12202;SDS011;6164;42.178;24.622;2023-05-15T05:12:01;21.80;;;17.90;;
12202;SDS011;6164;42.178;24.622;2023-05-15T05:14:28;21.20;;;16.80;;
12202;SDS011;6164;42.178;24.622;2023-05-15T05:16:55;24.05;;;17.80;;
12202;SDS011;6164;42.178;24.622;2023-05-15T05:19:22;21.95;;;18.25;;
12202;SDS011;6164;42.178;24.622;2023-05-15T05:21:50;21.05;;;16.33;;
12202;SDS011;6164;42.178;24.622;2023-05-15T05:24:17;21.00;;;16.50;;
12202;SDS011;6164;42.178;24.622;2023-05-15T05:26:43;19.08;;;16.38;;
12202;SDS011;6164;42.178;24.622;2023-05-15T05:29:10;18.40;;;16.05;;
12202;SDS011;6164;42.178;24.622;2023-05-15T05:31:37;22.40;;;16.48;;
12202;SDS011;6164;42.178;24.622;2023-05-15T05:34:03;18.95;;;15.68;;
12202;SDS011;6164;42.178;24.622;2023-05-15T05:36:30;21.40;;;18.27;;
12202;SDS011;6164;42.178;24.622;2023-05-15T05:38:58;19.73;;;16.92;;
12202;SDS011;6164;42.178;24.622;2023-05-15T05:41:25;23.77;;;17.60;;
12202;SDS011;6164;42.178;24.622;2023-05-15T05:43:52;23.13;;;17.85;;
12202;SDS011;6164;42.178;24.622;2023-05-15T05:46:18;22.02;;;18.25;;
12202;SDS011;6164;42.178;24.622;2023-05-15T05:48:45;21.63;;;16.77;;
12202;SDS011;6164;42.178;24.622;2023-05-15T05:51:12;21.70;;;17.00;;
12202;SDS011;6164;42.178;24.622;2023-05-15T05:53:39;22.67;;;17.88;;
12202;SDS011;6164;42.178;24.622;2023-05-15T05:56:07;21.00;;;17.50;;
12202;SDS011;6164;42.178;24.622;2023-05-15T05:58:34;22.00;;;17.15;;
12202;SDS011;6164;42.178;24.622;2023-05-15T06:01:01;21.20;;;17.70;;
12202;SDS011;6164;42.178;24.622;2023-05-15T06:03:29;23.45;;;17.67;;
12202;SDS011;6164;42.178;24.622;2023-05-15T06:05:56;22.92;;;17.20;;
12202;SDS011;6164;42.178;24.622;2023-05-15T06:08:22;23.08;;;18.17;;
12202;SDS011;6164;42.178;24.622;2023-05-15T06:10:49;20.60;;;17.05;;
12202;SDS011;6164;42.178;24.622;2023-05-15T06:13:17;21.55;;;16.90;;
12202;SDS011;6164;42.178;24.622;2023-05-15T06:15:44;22.52;;;17.55;;
12202;SDS011;6164;42.178;24.622;2023-05-15T06:18:11;21.73;;;17.25;;
12202;SDS011;6164;42.178;24.622;2023-05-15T06:20:38;22.15;;;17.67;;
12202;SDS011;6164;42.178;24.622;2023-05-15T06:23:06;25.80;;;17.90;;
12202;SDS011;6164;42.178;24.622;2023-05-15T06:25:33;24.42;;;18.88;;
12202;SDS011;6164;42.178;24.622;2023-05-15T06:28:00;22.95;;;18.20;;
12202;SDS011;6164;42.178;24.622;2023-05-15T06:30:28;24.17;;;18.92;;
12202;SDS011;6164;42.178;24.622;2023-05-15T06:32:55;20.98;;;17.35;;
12202;SDS011;6164;42.178;24.622;2023-05-15T06:35:22;23.95;;;18.60;;
12202;SDS011;6164;42.178;24.622;2023-05-15T06:37:49;24.85;;;18.55;;
12202;SDS011;6164;42.178;24.622;2023-05-15T06:40:17;20.58;;;17.50;;
12202;SDS011;6164;42.178;24.622;2023-05-15T06:42:43;22.10;;;18.55;;
12202;SDS011;6164;42.178;24.622;2023-05-15T06:45:11;24.90;;;18.33;;
12202;SDS011;6164;42.178;24.622;2023-05-15T06:47:39;24.23;;;18.20;;
12202;SDS011;6164;42.178;24.622;2023-05-15T06:50:06;21.52;;;17.30;;
12202;SDS011;6164;42.178;24.622;2023-05-15T06:52:33;20.95;;;16.35;;
12202;SDS011;6164;42.178;24.622;2023-05-15T06:55:00;21.30;;;16.27;;
12202;SDS011;6164;42.178;24.622;2023-05-15T06:57:27;19.92;;;17.05;;
12202;SDS011;6164;42.178;24.622;2023-05-15T06:59:53;21.42;;;17.17;;
12202;SDS011;6164;42.178;24.622;2023-05-15T07:02:20;21.25;;;16.77;;
12202;SDS011;6164;42.178;24.622;2023-05-15T07:04:48;19.70;;;16.50;;
12202;SDS011;6164;42.178;24.622;2023-05-15T07:07:15;17.08;;;15.27;;
12202;SDS011;6164;42.178;24.622;2023-05-15T07:09:42;17.95;;;14.90;;
12202;SDS011;6164;42.178;24.622;2023-05-15T07:12:12;17.98;;;14.80;;
12202;SDS011;6164;42.178;24.622;2023-05-15T07:14:39;20.42;;;15.82;;
12202;SDS011;6164;42.178;24.622;2023-05-15T07:17:05;18.92;;;15.45;;
12202;SDS011;6164;42.178;24.622;2023-05-15T07:19:32;18.38;;;15.57;;
12202;SDS011;6164;42.178;24.622;2023-05-15T07:22:00;19.58;;;16.83;;
12202;SDS011;6164;42.178;24.622;2023-05-15T07:24:27;20.38;;;16.60;;
12202;SDS011;6164;42.178;24.622;2023-05-15T07:26:53;18.17;;;15.65;;
12202;SDS011;6164;42.178;24.622;2023-05-15T07:29:21;18.92;;;15.88;;
12202;SDS011;6164;42.178;24.622;2023-05-15T07:31:47;19.55;;;16.23;;
12202;SDS011;6164;42.178;24.622;2023-05-15T07:34:14;20.20;;;16.60;;
12202;SDS011;6164;42.178;24.622;2023-05-15T07:36:41;19.10;;;15.80;;
12202;SDS011;6164;42.178;24.622;2023-05-15T07:39:09;20.08;;;16.17;;
12202;SDS011;6164;42.178;24.622;2023-05-15T07:41:35;19.60;;;16.25;;
12202;SDS011;6164;42.178;24.622;2023-05-15T07:44:02;22.05;;;16.80;;
12202;SDS011;6164;42.178;24.622;2023-05-15T07:46:30;18.98;;;15.80;;
12202;SDS011;6164;42.178;24.622;2023-05-15T07:48:56;20.95;;;16.95;;
12202;SDS011;6164;42.178;24.622;2023-05-15T07:51:23;21.15;;;17.17;;
12202;SDS011;6164;42.178;24.622;2023-05-15T07:53:50;24.30;;;17.77;;
12202;SDS011;6164;42.178;24.622;2023-05-15T07:56:18;19.73;;;17.17;;
12202;SDS011;6164;42.178;24.622;2023-05-15T07:58:45;21.92;;;18.05;;
12202;SDS011;6164;42.178;24.622;2023-05-15T08:01:12;21.45;;;16.33;;
12202;SDS011;6164;42.178;24.622;2023-05-15T08:03:39;20.10;;;17.52;;
12202;SDS011;6164;42.178;24.622;2023-05-15T08:06:05;26.20;;;16.95;;
12202;SDS011;6164;42.178;24.622;2023-05-15T08:08:32;19.42;;;17.40;;
12202;SDS011;6164;42.178;24.622;2023-05-15T08:10:59;20.10;;;16.73;;
12202;SDS011;6164;42.178;24.622;2023-05-15T08:13:27;18.77;;;16.38;;
12202;SDS011;6164;42.178;24.622;2023-05-15T08:15:54;17.77;;;15.52;;
12202;SDS011;6164;42.178;24.622;2023-05-15T08:18:20;20.17;;;16.10;;
12202;SDS011;6164;42.178;24.622;2023-05-15T08:20:47;18.83;;;16.75;;
12202;SDS011;6164;42.178;24.622;2023-05-15T08:23:14;18.75;;;16.55;;
12202;SDS011;6164;42.178;24.622;2023-05-15T08:25:41;20.95;;;15.70;;
12202;SDS011;6164;42.178;24.622;2023-05-15T08:28:08;18.20;;;15.70;;
12202;SDS011;6164;42.178;24.622;2023-05-15T08:30:37;21.95;;;16.85;;
12202;SDS011;6164;42.178;24.622;2023-05-15T08:33:03;18.40;;;16.08;;
12202;SDS011;6164;42.178;24.622;2023-05-15T08:35:30;20.58;;;16.45;;
12202;SDS011;6164;42.178;24.622;2023-05-15T08:37:57;19.63;;;16.27;;
12202;SDS011;6164;42.178;24.622;2023-05-15T08:40:24;22.20;;;17.20;;
12202;SDS011;6164;42.178;24.622;2023-05-15T08:42:53;18.23;;;16.52;;
12202;SDS011;6164;42.178;24.622;2023-05-15T08:45:21;19.95;;;17.45;;
12202;SDS011;6164;42.178;24.622;2023-05-15T08:47:49;20.13;;;16.45;;
12202;SDS011;6164;42.178;24.622;2023-05-15T08:50:16;18.05;;;16.15;;
12202;SDS011;6164;42.178;24.622;2023-05-15T08:52:43;20.50;;;18.40;;
12202;SDS011;6164;42.178;24.622;2023-05-15T08:55:12;21.15;;;18.95;;
12202;SDS011;6164;42.178;24.622;2023-05-15T08:57:40;21.70;;;17.40;;
12202;SDS011;6164;42.178;24.622;2023-05-15T09:00:08;17.77;;;15.88;;
12202;SDS011;6164;42.178;24.622;2023-05-15T09:02:38;17.42;;;15.60;;
12202;SDS011;6164;42.178;24.622;2023-05-15T09:05:08;17.17;;;15.05;;
12202;SDS011;6164;42.178;24.622;2023-05-15T09:07:35;18.73;;;16.90;;
12202;SDS011;6164;42.178;24.622;2023-05-15T09:10:05;19.23;;;16.50;;
12202;SDS011;6164;42.178;24.622;2023-05-15T09:12:33;18.05;;;15.95;;
12202;SDS011;6164;42.178;24.622;2023-05-15T09:15:08;17.67;;;15.88;;
12202;SDS011;6164;42.178;24.622;2023-05-15T09:17:36;17.45;;;15.85;;
12202;SDS011;6164;42.178;24.622;2023-05-15T09:20:03;19.35;;;17.35;;
12202;SDS011;6164;42.178;24.622;2023-05-15T09:22:34;18.60;;;16.67;;
12202;SDS011;6164;42.178;24.622;2023-05-15T09:25:01;16.95;;;15.25;;
12202;SDS011;6164;42.178;24.622;2023-05-15T09:27:29;18.45;;;16.58;;
12202;SDS011;6164;42.178;24.622;2023-05-15T09:29:58;19.10;;;16.90;;
12202;SDS011;6164;42.178;24.622;2023-05-15T09:32:33;20.02;;;17.30;;
12202;SDS011;6164;42.178;24.622;2023-05-15T09:35:01;19.90;;;16.02;;
12202;SDS011;6164;42.178;24.622;2023-05-15T09:37:29;19.92;;;16.40;;
12202;SDS011;6164;42.178;24.622;2023-05-15T09:40:06;18.27;;;15.80;;
12202;SDS011;6164;42.178;24.622;2023-05-15T09:42:34;18.35;;;15.95;;
12202;SDS011;6164;42.178;24.622;2023-05-15T09:45:03;17.40;;;15.60;;
12202;SDS011;6164;42.178;24.622;2023-05-15T09:47:30;18.08;;;16.13;;
12202;SDS011;6164;42.178;24.622;2023-05-15T09:49:58;18.05;;;16.13;;
12202;SDS011;6164;42.178;24.622;2023-05-15T09:52:26;19.08;;;16.23;;
12202;SDS011;6164;42.178;24.622;2023-05-15T09:54:54;18.67;;;16.80;;
12202;SDS011;6164;42.178;24.622;2023-05-15T09:57:22;18.00;;;16.10;;
12202;SDS011;6164;42.178;24.622;2023-05-15T09:59:49;18.83;;;16.75;;
12202;SDS011;6164;42.178;24.622;2023-05-15T10:02:22;19.92;;;17.63;;
12202;SDS011;6164;42.178;24.622;2023-05-15T10:04:55;19.00;;;17.10;;
12202;SDS011;6164;42.178;24.622;2023-05-15T10:07:29;19.75;;;16.48;;
12202;SDS011;6164;42.178;24.622;2023-05-15T10:09:57;19.20;;;17.33;;
12202;SDS011;6164;42.178;24.622;2023-05-15T10:12:26;17.92;;;16.02;;
12202;SDS011;6164;42.178;24.622;2023-05-15T10:14:56;19.15;;;16.35;;
12202;SDS011;6164;42.178;24.622;2023-05-15T10:17:24;17.90;;;16.20;;
12202;SDS011;6164;42.178;24.622;2023-05-15T10:19:51;20.88;;;17.27;;
12202;SDS011;6164;42.178;24.622;2023-05-15T10:22:20;18.80;;;16.73;;
12202;SDS011;6164;42.178;24.622;2023-05-15T10:24:49;17.15;;;15.48;;
12202;SDS011;6164;42.178;24.622;2023-05-15T10:27:22;14.93;;;13.52;;
12202;SDS011;6164;42.178;24.622;2023-05-15T10:29:52;19.33;;;17.15;;
12202;SDS011;6164;42.178;24.622;2023-05-15T10:32:21;19.67;;;16.30;;
12202;SDS011;6164;42.178;24.622;2023-05-15T10:34:49;20.35;;;16.85;;
12202;SDS011;6164;42.178;24.622;2023-05-15T10:37:17;21.00;;;17.83;;
12202;SDS011;6164;42.178;24.622;2023-05-15T10:39:44;20.48;;;17.15;;
12202;SDS011;6164;42.178;24.622;2023-05-15T10:42:13;20.75;;;17.10;;
12202;SDS011;6164;42.178;24.622;2023-05-15T10:44:40;21.25;;;18.90;;
12202;SDS011;6164;42.178;24.622;2023-05-15T10:47:08;18.90;;;17.00;;
12202;SDS011;6164;42.178;24.622;2023-05-15T10:49:35;21.98;;;17.65;;
12202;SDS011;6164;42.178;24.622;2023-05-15T10:52:02;20.55;;;18.35;;
12202;SDS011;6164;42.178;24.622;2023-05-15T10:54:29;19.50;;;16.65;;
12202;SDS011;6164;42.178;24.622;2023-05-15T10:56:56;17.48;;;15.60;;
12202;SDS011;6164;42.178;24.622;2023-05-15T10:59:29;19.00;;;16.25;;
12202;SDS011;6164;42.178;24.622;2023-05-15T11:01:57;18.98;;;17.00;;
12202;SDS011;6164;42.178;24.622;2023-05-15T11:04:47;16.83;;;15.15;;
12202;SDS011;6164;42.178;24.622;2023-05-15T11:07:18;17.48;;;15.68;;
12202;SDS011;6164;42.178;24.622;2023-05-15T11:09:45;19.25;;;17.25;;
12202;SDS011;6164;42.178;24.622;2023-05-15T11:12:12;17.58;;;15.98;;
12202;SDS011;6164;42.178;24.622;2023-05-15T11:14:39;19.75;;;17.63;;
12202;SDS011;6164;42.178;24.622;2023-05-15T11:17:08;19.88;;;17.77;;
12202;SDS011;6164;42.178;24.622;2023-05-15T11:19:38;18.80;;;17.00;;
12202;SDS011;6164;42.178;24.622;2023-05-15T11:22:25;19.75;;;17.83;;
12202;SDS011;6164;42.178;24.622;2023-05-15T11:24:54;20.95;;;17.90;;
12202;SDS011;6164;42.178;24.622;2023-05-15T11:27:25;18.95;;;17.00;;
12202;SDS011;6164;42.178;24.622;2023-05-15T11:30:05;22.15;;;19.67;;
12202;SDS011;6164;42.178;24.622;2023-05-15T11:32:43;22.02;;;19.70;;
12202;SDS011;6164;42.178;24.622;2023-05-15T11:35:18;22.60;;;20.20;;
12202;SDS011;6164;42.178;24.622;2023-05-15T11:37:48;21.40;;;19.17;;
12202;SDS011;6164;42.178;24.622;2023-05-15T11:40:19;22.02;;;19.75;;
12202;SDS011;6164;42.178;24.622;2023-05-15T11:45:45;23.50;;;21.10;;
12202;SDS011;6164;42.178;24.622;2023-05-15T11:48:14;23.58;;;21.05;;
12202;SDS011;6164;42.178;24.622;2023-05-15T11:50:43;24.80;;;22.20;;
12202;SDS011;6164;42.178;24.622;2023-05-15T11:53:11;22.83;;;20.48;;
12202;SDS011;6164;42.178;24.622;2023-05-15T11:55:39;21.92;;;19.60;;
12202;SDS011;6164;42.178;24.622;2023-05-15T11:58:11;22.23;;;20.10;;
12202;SDS011;6164;42.178;24.622;2023-05-15T12:00:39;21.40;;;19.23;;
12202;SDS011;6164;42.178;24.622;2023-05-15T12:03:09;23.73;;;20.30;;
12202;SDS011;6164;42.178;24.622;2023-05-15T12:05:40;22.83;;;20.52;;
12202;SDS011;6164;42.178;24.622;2023-05-15T12:08:09;23.45;;;20.10;;
12202;SDS011;6164;42.178;24.622;2023-05-15T12:10:39;22.20;;;19.90;;
12202;SDS011;6164;42.178;24.622;2023-05-15T12:13:07;23.13;;;20.75;;
12202;SDS011;6164;42.178;24.622;2023-05-15T12:15:35;23.92;;;21.50;;
12202;SDS011;6164;42.178;24.622;2023-05-15T12:18:03;23.52;;;21.02;;
12202;SDS011;6164;42.178;24.622;2023-05-15T12:20:31;24.45;;;21.73;;
12202;SDS011;6164;42.178;24.622;2023-05-15T12:22:58;27.08;;;22.67;;
12202;SDS011;6164;42.178;24.622;2023-05-15T12:25:27;25.35;;;22.67;;
12202;SDS011;6164;42.178;24.622;2023-05-15T12:27:53;25.70;;;22.27;;
12202;SDS011;6164;42.178;24.622;2023-05-15T12:30:21;25.38;;;22.50;;
12202;SDS011;6164;42.178;24.622;2023-05-15T12:32:48;25.80;;;22.50;;
12202;SDS011;6164;42.178;24.622;2023-05-15T12:35:15;32.85;;;21.95;;
12202;SDS011;6164;42.178;24.622;2023-05-15T12:37:42;26.13;;;22.33;;
12202;SDS011;6164;42.178;24.622;2023-05-15T12:40:09;29.13;;;21.50;;
12202;SDS011;6164;42.178;24.622;2023-05-15T12:42:38;26.27;;;22.88;;
12202;SDS011;6164;42.178;24.622;2023-05-15T12:45:15;24.73;;;22.05;;
12202;SDS011;6164;42.178;24.622;2023-05-15T12:47:44;25.40;;;22.27;;
12202;SDS011;6164;42.178;24.622;2023-05-15T12:50:13;28.80;;;23.25;;
12202;SDS011;6164;42.178;24.622;2023-05-15T12:52:51;25.70;;;22.13;;
12202;SDS011;6164;42.178;24.622;2023-05-15T12:55:21;27.83;;;24.30;;
12202;SDS011;6164;42.178;24.622;2023-05-15T12:57:50;28.73;;;24.63;;
12202;SDS011;6164;42.178;24.622;2023-05-15T13:00:17;27.85;;;23.88;;
12202;SDS011;6164;42.178;24.622;2023-05-15T13:02:47;27.05;;;23.65;;
12202;SDS011;6164;42.178;24.622;2023-05-15T13:05:14;26.00;;;23.30;;
12202;SDS011;6164;42.178;24.622;2023-05-15T13:07:42;29.67;;;23.67;;
12202;SDS011;6164;42.178;24.622;2023-05-15T13:10:09;28.10;;;24.13;;
12202;SDS011;6164;42.178;24.622;2023-05-15T13:12:37;29.45;;;23.65;;
12202;SDS011;6164;42.178;24.622;2023-05-15T13:15:06;27.65;;;24.40;;
12202;SDS011;6164;42.178;24.622;2023-05-15T13:17:46;26.80;;;23.55;;
12202;SDS011;6164;42.178;24.622;2023-05-15T13:20:13;27.23;;;23.60;;
12202;SDS011;6164;42.178;24.622;2023-05-15T13:22:40;27.77;;;23.90;;
12202;SDS011;6164;42.178;24.622;2023-05-15T13:25:07;28.38;;;24.45;;
12202;SDS011;6164;42.178;24.622;2023-05-15T13:27:34;28.60;;;25.23;;
12202;SDS011;6164;42.178;24.622;2023-05-15T13:30:01;26.13;;;23.33;;
12202;SDS011;6164;42.178;24.622;2023-05-15T13:32:30;27.67;;;24.52;;
12202;SDS011;6164;42.178;24.622;2023-05-15T13:34:57;26.83;;;23.73;;
12202;SDS011;6164;42.178;24.622;2023-05-15T13:37:24;26.83;;;24.02;;
12202;SDS011;6164;42.178;24.622;2023-05-15T13:39:51;25.92;;;23.13;;
12202;SDS011;6164;42.178;24.622;2023-05-15T13:42:18;31.08;;;23.45;;
12202;SDS011;6164;42.178;24.622;2023-05-15T13:44:45;25.85;;;22.83;;
12202;SDS011;6164;42.178;24.622;2023-05-15T13:47:11;28.42;;;24.45;;
12202;SDS011;6164;42.178;24.622;2023-05-15T13:49:39;26.63;;;23.75;;
12202;SDS011;6164;42.178;24.622;2023-05-15T13:52:06;30.20;;;23.95;;
12202;SDS011;6164;42.178;24.622;2023-05-15T13:54:33;25.30;;;22.60;;
12202;SDS011;6164;42.178;24.622;2023-05-15T13:57:00;29.60;;;23.35;;
12202;SDS011;6164;42.178;24.622;2023-05-15T13:59:27;30.35;;;24.08;;
12202;SDS011;6164;42.178;24.622;2023-05-15T14:01:53;28.00;;;23.95;;
12202;SDS011;6164;42.178;24.622;2023-05-15T14:04:20;26.88;;;24.17;;
12202;SDS011;6164;42.178;24.622;2023-05-15T14:06:48;27.38;;;24.23;;
12202;SDS011;6164;42.178;24.622;2023-05-15T14:09:15;26.77;;;23.98;;
12202;SDS011;6164;42.178;24.622;2023-05-15T14:11:41;27.10;;;24.08;;
12202;SDS011;6164;42.178;24.622;2023-05-15T14:14:08;27.35;;;23.63;;
12202;SDS011;6164;42.178;24.622;2023-05-15T14:16:35;26.42;;;23.67;;
12202;SDS011;6164;42.178;24.622;2023-05-15T14:19:02;27.08;;;23.92;;
12202;SDS011;6164;42.178;24.622;2023-05-15T14:21:29;26.70;;;23.95;;
12202;SDS011;6164;42.178;24.622;2023-05-15T14:23:57;33.30;;;24.83;;
12202;SDS011;6164;42.178;24.622;2023-05-15T14:26:24;29.63;;;24.42;;
12202;SDS011;6164;42.178;24.622;2023-05-15T14:28:51;27.02;;;23.13;;
12202;SDS011;6164;42.178;24.622;2023-05-15T14:31:18;26.80;;;24.00;;
12202;SDS011;6164;42.178;24.622;2023-05-15T14:33:44;28.52;;;24.58;;